Time;durP1;ratioP1;P1;durP2;ratioP2;P2;SDS_P1;SDS_P2;PMS_P1;PMS_P2;Temp;Humidity;BMP_temperature;BMP_pressure;BME280_temperature;BME280_humidity;BME280_pressure;Samples;Min_cycle;Max_cycle;Signal;HPM_P1;HPM_P2
2023/09/22 00:00:18;;;;;;;;;;;;;;;;;;6283756;22;20004;-87
2023/09/22 00:02:45;;;;;;;;;;;;;;;;;;6255281;22;19918;-87
2023/09/22 00:05:13;;;;;;;;;;;;;;;;;;6261103;22;19923;-88
2023/09/22 00:07:51;;;;;;;;;;;;;;;;;;6283260;22;19926;-87
2023/09/22 00:10:17;;;;;;;;;;;;;;;;;;6260393;22;19929;-87
2023/09/22 00:15:42;;;;;;;;;;;;;;;;;;6281833;22;19918;-88
2023/09/22 00:18:11;;;;;;;;;;;;;;;;;;6286967;22;19919;-87
2023/09/22 00:20:38;;;;;;;;;;;;;;;;;;6256991;22;20161;-87
2023/09/22 00:23:04;;;;;;;;;;;;;;;;;;6285566;22;19954;-87
2023/09/22 00:25:31;;;;;;;;;;;;;;;;;;6281828;22;20445;-87
2023/09/22 00:27:57;;;;;;;;;;;;;;;;;;6257606;22;19919;-87
2023/09/22 00:30:23;;;;;;;;;;;;;;;;;;6255673;22;19919;-87
2023/09/22 00:33:02;;;;;;;;;;;;;;;;;;6286078;22;20263;-87
2023/09/22 00:35:28;;;;;;;;;;;;;;;;;;6256644;22;19967;-87
2023/09/22 00:37:54;;;;;;;;;;;;;;;;;;6282767;22;20284;-87
2023/09/22 00:40:23;;;;;;;;;;;;;;;;;;6284576;22;19919;-87
2023/09/22 00:42:49;;;;;;;;;;;;;;;;;;6282928;22;20422;-87
2023/09/22 00:45:17;;;;;;;;;;;;;;;;;;6284042;22;19923;-88
2023/09/22 00:47:43;;;;;;;;;;;;;;;;;;6283921;22;20009;-87
2023/09/22 00:50:09;;;;;;;;;;;;;;;;;;6259970;22;20035;-87
2023/09/22 00:52:35;;;;;;;;;;;;;;;;;;6257511;22;20340;-87
2023/09/22 00:55:01;;;;;;;;;;;;;;;;;;6257346;22;19925;-88
2023/09/22 00:57:27;;;;;;;;;;;;;;;;;;6282322;22;19925;-87
2023/09/22 00:59:56;;;;;;;;;;;;;;;;;;6286309;22;20040;-87
2023/09/22 01:02:25;;;;;;;;;;;;;;;;;;6279506;22;19922;-88
2023/09/22 01:04:51;;;;;;;;;;;;;;;;;;6282302;22;19925;-87
2023/09/22 01:07:26;;;;;;;;;;;;;;;;;;6255383;22;19914;-88
2023/09/22 01:10:12;;;;;;;;;;;;;;;;;;6264305;22;19925;-87
2023/09/22 01:12:38;;;;;;;;;;;;;;;;;;6283187;22;19918;-88
2023/09/22 01:15:07;;;;;;;;;;;;;;;;;;6259228;22;19919;-88
2023/09/22 01:17:36;;;;;;;;;;;;;;;;;;6281769;22;19964;-88
2023/09/22 01:20:09;;;;;;;;;;;;;;;;;;6257210;22;19934;-88
2023/09/22 01:22:35;;;;;;;;;;;;;;;;;;6278210;22;19918;-88
2023/09/22 01:25:01;;;;;;;;;;;;;;;;;;6283417;22;19919;-88
2023/09/22 01:27:27;;;;;;;;;;;;;;;;;;6252969;22;20223;-88
2023/09/22 01:29:53;;;;;;;;;;;;;;;;;;6285198;22;19927;-88
2023/09/22 01:32:19;;;;;;;;;;;;;;;;;;6262625;22;19919;-88
2023/09/22 01:34:44;;;;;;;;;;;;;;;;;;6282798;22;19923;-89
2023/09/22 01:37:10;;;;;;;;;;;;;;;;;;6260959;22;20609;-88
2023/09/22 01:39:39;;;;;;;;;;;;;;;;;;6282706;22;19915;-87
2023/09/22 01:42:05;;;;;;;;;;;;;;;;;;6254759;22;19919;-88
2023/09/22 01:44:31;;;;;;;;;;;;;;;;;;6280211;22;19919;-88
2023/09/22 01:47:00;;;;;;;;;;;;;;;;;;6258729;22;19927;-89
2023/09/22 01:49:26;;;;;;;;;;;;;;;;;;6256461;22;19925;-88
2023/09/22 01:51:52;;;;;;;;;;;;;;;;;;6258880;22;19974;-87
2023/09/22 01:54:25;;;;;;;;;;;;;;;;;;6257316;22;19923;-87
2023/09/22 01:56:54;;;;;;;;;;;;;;;;;;6282530;22;19919;-88
2023/09/22 01:59:23;;;;;;;;;;;;;;;;;;6282923;22;19919;-88
2023/09/22 02:01:49;;;;;;;;;;;;;;;;;;6282614;22;20226;-87
2023/09/22 02:04:18;;;;;;;;;;;;;;;;;;6280794;22;19959;-88
2023/09/22 02:06:44;;;;;;;;;;;;;;;;;;6278005;22;19933;-88
2023/09/22 02:09:10;;;;;;;;;;;;;;;;;;6283276;22;20021;-87
2023/09/22 02:11:40;;;;;;;;;;;;;;;;;;6278859;22;19919;-87
2023/09/22 02:14:09;;;;;;;;;;;;;;;;;;6256099;22;19929;-88
2023/09/22 02:16:35;;;;;;;;;;;;;;;;;;6282676;22;20103;-87
2023/09/22 02:19:01;;;;;;;;;;;;;;;;;;6259911;22;20498;-87
2023/09/22 02:21:29;;;;;;;;;;;;;;;;;;6259070;22;19919;-87
2023/09/22 02:23:55;;;;;;;;;;;;;;;;;;6286155;22;19957;-87
2023/09/22 02:26:21;;;;;;;;;;;;;;;;;;6257810;22;19923;-86
2023/09/22 02:28:51;;;;;;;;;;;;;;;;;;6258191;22;19930;-87
2023/09/22 02:31:17;;;;;;;;;;;;;;;;;;6257051;22;20659;-87
2023/09/22 02:33:52;;;;;;;;;;;;;;;;;;6256541;22;20244;-87
2023/09/22 02:36:18;;;;;;;;;;;;;;;;;;6281560;22;19937;-87
2023/09/22 02:38:44;;;;;;;;;;;;;;;;;;6278963;22;19923;-87
2023/09/22 02:41:10;;;;;;;;;;;;;;;;;;6257805;22;20357;-87
2023/09/22 02:43:36;;;;;;;;;;;;;;;;;;6254194;22;19918;-87
2023/09/22 02:46:02;;;;;;;;;;;;;;;;;;6257572;22;19933;-87
2023/09/22 02:48:28;;;;;;;;;;;;;;;;;;6281897;22;19950;-87
2023/09/22 02:50:54;;;;;;;;;;;;;;;;;;6283253;22;19930;-86
2023/09/22 02:53:19;;;;;;;;;;;;;;;;;;6258760;22;20217;-87
2023/09/22 02:55:46;;;;;;;;;;;;;;;;;;6257129;22;19918;-87
2023/09/22 02:58:12;;;;;;;;;;;;;;;;;;6260637;22;19929;-87
2023/09/22 03:00:38;;;;;;;;;;;;;;;;;;6257112;22;19949;-88
2023/09/22 03:03:05;;;;;;;;;;;;;;;;;;6255588;22;19919;-87
2023/09/22 03:05:31;;;;;;;;;;;;;;;;;;6279683;22;19966;-87
2023/09/22 03:07:57;;;;;;;;;;;;;;;;;;6284153;22;19957;-87
2023/09/22 03:10:22;;;;;;;;;;;;;;;;;;6282935;22;19919;-87
2023/09/22 03:12:54;;;;;;;;;;;;;;;;;;6286303;22;19945;-87
2023/09/22 03:15:20;;;;;;;;;;;;;;;;;;6264279;22;20281;-87
2023/09/22 03:17:49;;;;;;;;;;;;;;;;;;6261470;22;19942;-87
2023/09/22 03:20:17;;;;;;;;;;;;;;;;;;6261377;22;20254;-86
2023/09/22 03:22:43;;;;;;;;;;;;;;;;;;6258267;22;20422;-87
2023/09/22 03:25:09;;;;;;;;;;;;;;;;;;6285530;22;20060;-87
2023/09/22 03:27:35;;;;;;;;;;;;;;;;;;6284662;22;19958;-87
2023/09/22 03:30:01;;;;;;;;;;;;;;;;;;6259201;22;20003;-87
2023/09/22 03:32:27;;;;;;;;;;;;;;;;;;6283748;22;19925;-87
2023/09/22 03:34:57;;;;;;;;;;;;;;;;;;6259589;22;20189;-87
2023/09/22 03:37:27;;;;;;;;;;;;;;;;;;6258256;22;19926;-87
2023/09/22 03:39:53;;;;;;;;;;;;;;;;;;6260779;22;20295;-87
2023/09/22 03:42:19;;;;;;;;;;;;;;;;;;6258012;22;19934;-87
2023/09/22 03:44:45;;;;;;;;;;;;;;;;;;6255146;22;19941;-88
2023/09/22 03:47:11;;;;;;;;;;;;;;;;;;6260101;22;19915;-87
2023/09/22 03:49:37;;;;;;;;;;;;;;;;;;6255007;22;19926;-88
2023/09/22 03:52:04;;;;;;;;;;;;;;;;;;6258834;22;19915;-87
2023/09/22 03:54:30;;;;;;;;;;;;;;;;;;6259045;22;19919;-87
2023/09/22 03:56:56;;;;;;;;;;;;;;;;;;6283408;22;20005;-87
2023/09/22 03:59:22;;;;;;;;;;;;;;;;;;6283866;22;19927;-87
2023/09/22 04:01:48;;;;;;;;;;;;;;;;;;6284171;22;20310;-87
2023/09/22 04:04:14;;;;;;;;;;;;;;;;;;6286164;22;19937;-87
2023/09/22 04:06:40;;;;;;;;;;;;;;;;;;6285298;22;20059;-87
2023/09/22 04:09:07;;;;;;;;;;;;;;;;;;6287012;22;19919;-87
2023/09/22 04:11:33;;;;;;;;;;;;;;;;;;6280670;22;19919;-87
2023/09/22 04:13:59;;;;;;;;;;;;;;;;;;6261903;22;19919;-86
2023/09/22 04:16:25;;;;;;;;;;;;;;;;;;6281920;22;20353;-87
2023/09/22 04:18:54;;;;;;;;;;;;;;;;;;6261274;22;19998;-87
2023/09/22 04:21:20;;;;;;;;;;;;;;;;;;6283890;22;19919;-87
2023/09/22 04:23:58;;;;;;;;;;;;;;;;;;6257303;22;20250;-87
2023/09/22 04:26:29;;;;;;;;;;;;;;;;;;6251730;22;20315;-87
2023/09/22 04:28:55;;;;;;;;;;;;;;;;;;6284581;22;19922;-86
2023/09/22 04:31:21;;;;;;;;;;;;;;;;;;6285078;22;19918;-86
2023/09/22 04:33:47;;;;;;;;;;;;;;;;;;6263567;22;19974;-87
2023/09/22 04:36:13;;;;;;;;;;;;;;;;;;6288303;22;19918;-87
2023/09/22 04:38:39;;;;;;;;;;;;;;;;;;6311236;22;19919;-87
2023/09/22 04:41:06;;;;;;;;;;;;;;;;;;6262813;22;19924;-87
2023/09/22 04:43:35;;;;;;;;;;;;;;;;;;6261233;22;19918;-87
2023/09/22 04:46:02;;;;;;;;;;;;;;;;;;6263098;22;19922;-88
2023/09/22 04:48:28;;;;;;;;;;;;;;;;;;6285853;22;19929;-87
2023/09/22 04:50:58;;;;;;;;;;;;;;;;;;6288619;22;19918;-87
2023/09/22 04:53:24;;;;;;;;;;;;;;;;;;6285333;22;19925;-87
2023/09/22 04:58:53;;;;;;;;;;;;;;;;;;6284147;22;20219;-87
2023/09/22 05:01:26;;;;;;;;;;;;;;;;;;6290547;22;19918;-87
2023/09/22 05:03:52;;;;;;;;;;;;;;;;;;6290760;22;20252;-87
2023/09/22 05:06:18;;;;;;;;;;;;;;;;;;6317524;22;19930;-87
2023/09/22 05:08:44;;;;;;;;;;;;;;;;;;6287288;22;20302;-87
2023/09/22 05:11:10;;;;;;;;;;;;;;;;;;6289951;22;19918;-87
2023/09/22 05:13:36;;;;;;;;;;;;;;;;;;6285110;22;19918;-87
2023/09/22 05:16:01;;;;;;;;;;;;;;;;;;6264256;22;19960;-86
2023/09/22 05:18:28;;;;;;;;;;;;;;;;;;6289382;22;20451;-87
2023/09/22 05:20:54;;;;;;;;;;;;;;;;;;6267699;22;20600;-86
2023/09/22 05:23:23;;;;;;;;;;;;;;;;;;6236596;22;19925;-86
2023/09/22 05:25:50;;;;;;;;;;;;;;;;;;6259122;22;20014;-87
2023/09/22 05:28:16;;;;;;;;;;;;;;;;;;6255152;22;20276;-86
2023/09/22 05:30:46;;;;;;;;;;;;;;;;;;6197040;22;19919;-86
2023/09/22 05:33:13;;;;;;;;;;;;;;;;;;6196836;22;19919;-87
2023/09/22 05:35:41;;;;;;;;;;;;;;;;;;6221938;22;19919;-87
2023/09/22 05:38:07;;;;;;;;;;;;;;;;;;6224724;22;19990;-86
2023/09/22 05:40:34;;;;;;;;;;;;;;;;;;6195657;22;19919;-86
2023/09/22 05:43:00;;;;;;;;;;;;;;;;;;6223740;22;19919;-87
2023/09/22 05:45:26;;;;;;;;;;;;;;;;;;6221066;22;20295;-87
2023/09/22 05:47:52;;;;;;;;;;;;;;;;;;6225025;22;19953;-87
2023/09/22 05:50:19;;;;;;;;;;;;;;;;;;6200138;22;19962;-87
2023/09/22 05:52:46;;;;;;;;;;;;;;;;;;6202163;22;20774;-87
2023/09/22 05:55:12;;;;;;;;;;;;;;;;;;6230048;22;19986;-87
2023/09/22 05:57:38;;;;;;;;;;;;;;;;;;6249405;22;20008;-87
2023/09/22 06:00:09;;;;;;;;;;;;;;;;;;6228858;22;19919;-86
2023/09/22 06:02:35;;;;;;;;;;;;;;;;;;6223166;22;19926;-86
2023/09/22 06:05:01;;;;;;;;;;;;;;;;;;6199946;22;19919;-86
2023/09/22 06:07:28;;;;;;;;;;;;;;;;;;6222524;22;20132;-87
2023/09/22 06:09:54;;;;;;;;;;;;;;;;;;6203259;22;19990;-87
2023/09/22 06:15:20;;;;;;;;;;;;;;;;;;6174622;22;20141;-87
2023/09/22 06:18:04;;;;;;;;;;;;;;;;;;6223357;22;19919;-87
2023/09/22 06:20:33;;;;;;;;;;;;;;;;;;6226127;22;19989;-87
2023/09/22 06:22:59;;;;;;;;;;;;;;;;;;6201553;22;20255;-87
2023/09/22 06:25:28;;;;;;;;;;;;;;;;;;6196261;22;19934;-87
2023/09/22 06:27:54;;;;;;;;;;;;;;;;;;6226203;22;19919;-86
2023/09/22 06:30:22;;;;;;;;;;;;;;;;;;6224444;22;20415;-86
2023/09/22 06:35:49;;;;;;;;;;;;;;;;;;6177211;22;19919;-86
2023/09/22 06:41:08;;;;;;;;;;;;;;;;;;6242999;22;19955;-87
2023/09/22 06:43:49;;;;;;;;;;;;;;;;;;6226601;22;19958;-87
2023/09/22 06:46:17;;;;;;;;;;;;;;;;;;6225175;22;19929;-86
2023/09/22 06:48:45;;;;;;;;;;;;;;;;;;6226931;22;19961;-87
2023/09/22 06:51:12;;;;;;;;;;;;;;;;;;6201547;22;19930;-86
2023/09/22 06:53:39;;;;;;;;;;;;;;;;;;6197942;22;20057;-86
2023/09/22 06:56:11;;;;;;;;;;;;;;;;;;6189525;23;20026;-87
2023/09/22 06:58:38;;;;;;;;;;;;;;;;;;6160943;23;19971;-86
2023/09/22 07:01:06;;;;;;;;;;;;;;;;;;6137518;23;19948;-87
2023/09/22 07:07:02;;;;;;;;;;;;;;;;;;6139678;23;20002;-86
2023/09/22 07:12:47;;;;;;;;;;;;;;;;;;6197146;23;20054;-86
2023/09/22 07:27:09;;;;;;;;;;;;;;;;;;6315179;22;19932;-86
2023/09/22 07:29:38;;;;;;;;;;;;;;;;;;6282329;22;19923;-86
2023/09/22 07:32:04;;;;;;;;;;;;;;;;;;6255434;22;20324;-86
2023/09/22 07:34:31;;;;;;;;;;;;;;;;;;6231858;22;19926;-86
2023/09/22 07:36:56;;;;;;;;;;;;;;;;;;6259702;22;19954;-88
2023/09/22 07:39:22;;;;;;;;;;;;;;;;;;6256911;22;19954;-88
2023/09/22 07:41:48;;;;;;;;;;;;;;;;;;6232363;22;20346;-88
2023/09/22 07:44:18;;;;;;;;;;;;;;;;;;6256967;22;19925;-88
2023/09/22 07:46:44;;;;;;;;;;;;;;;;;;6253791;22;19919;-88
2023/09/22 07:49:10;;;;;;;;;;;;;;;;;;6232777;22;20393;-88
2023/09/22 07:51:37;;;;;;;;;;;;;;;;;;6257205;22;19978;-88
2023/09/22 07:54:02;;;;;;;;;;;;;;;;;;6230749;22;19970;-88
2023/09/22 07:56:30;;;;;;;;;;;;;;;;;;6253601;22;19929;-87
2023/09/22 07:58:56;;;;;;;;;;;;;;;;;;6251678;22;19919;-87
2023/09/22 08:01:24;;;;;;;;;;;;;;;;;;6229917;22;20025;-88
2023/09/22 08:03:51;;;;;;;;;;;;;;;;;;6260265;22;20362;-88
2023/09/22 08:06:17;;;;;;;;;;;;;;;;;;6255558;22;19930;-88
2023/09/22 08:08:43;;;;;;;;;;;;;;;;;;6257411;22;19923;-88
2023/09/22 08:11:09;;;;;;;;;;;;;;;;;;6229438;22;19923;-88
2023/09/22 08:13:41;;;;;;;;;;;;;;;;;;6255726;22;19919;-88
2023/09/22 08:18:57;;;;;;;;;;;;;;;;;;6254372;22;19923;-88
2023/09/22 08:21:25;;;;;;;;;;;;;;;;;;6255020;22;19989;-88
2023/09/22 08:23:51;;;;;;;;;;;;;;;;;;6259991;22;19930;-88
2023/09/22 08:26:17;;;;;;;;;;;;;;;;;;6284369;22;19923;-88
2023/09/22 08:28:44;;;;;;;;;;;;;;;;;;6287270;22;19919;-88
2023/09/22 08:31:10;;;;;;;;;;;;;;;;;;6260674;22;20001;-88
2023/09/22 08:33:36;;;;;;;;;;;;;;;;;;6280544;22;19919;-87
2023/09/22 08:36:03;;;;;;;;;;;;;;;;;;6278692;22;20228;-88
2023/09/22 08:38:30;;;;;;;;;;;;;;;;;;6281277;22;19948;-87
2023/09/22 08:40:57;;;;;;;;;;;;;;;;;;6282392;22;19918;-88
2023/09/22 08:43:23;;;;;;;;;;;;;;;;;;6257775;22;19918;-87
2023/09/22 08:45:49;;;;;;;;;;;;;;;;;;6259212;22;19930;-88
2023/09/22 08:48:15;;;;;;;;;;;;;;;;;;6254042;22;19915;-88
2023/09/22 08:50:41;;;;;;;;;;;;;;;;;;6280790;22;19953;-88
2023/09/22 08:53:07;;;;;;;;;;;;;;;;;;6284367;22;19998;-87
2023/09/22 08:55:33;;;;;;;;;;;;;;;;;;6283684;22;19998;-87
2023/09/22 08:57:59;;;;;;;;;;;;;;;;;;6284959;22;19919;-88
2023/09/22 09:00:26;;;;;;;;;;;;;;;;;;6279527;22;19925;-87
2023/09/22 09:02:55;;;;;;;;;;;;;;;;;;6280588;22;19923;-88
2023/09/22 09:05:21;;;;;;;;;;;;;;;;;;6254249;22;20248;-87
2023/09/22 09:07:47;;;;;;;;;;;;;;;;;;6254623;22;19918;-88
2023/09/22 09:10:13;;;;;;;;;;;;;;;;;;6282796;22;19919;-88
2023/09/22 09:12:39;;;;;;;;;;;;;;;;;;6284026;22;19969;-88
2023/09/22 09:15:05;;;;;;;;;;;;;;;;;;6283956;22;19963;-88
2023/09/22 09:17:31;;;;;;;;;;;;;;;;;;6271504;22;19923;-88
2023/09/22 09:19:57;;;;;;;;;;;;;;;;;;6222844;22;19990;-88
2023/09/22 09:22:24;;;;;;;;;;;;;;;;;;6221618;22;19947;-88
2023/09/22 09:24:50;;;;;;;;;;;;;;;;;;6229845;22;19958;-88
2023/09/22 09:27:19;;;;;;;;;;;;;;;;;;6254426;22;19973;-88
2023/09/22 09:29:45;;;;;;;;;;;;;;;;;;6231518;22;20220;-87
2023/09/22 09:32:17;;;;;;;;;;;;;;;;;;6232718;22;19923;-87
2023/09/22 09:34:43;;;;;;;;;;;;;;;;;;6207417;22;20531;-87
2023/09/22 09:37:12;;;;;;;;;;;;;;;;;;6259891;22;20019;-88
2023/09/22 09:39:38;;;;;;;;;;;;;;;;;;6203829;22;19919;-88
2023/09/22 09:42:04;;;;;;;;;;;;;;;;;;6210533;22;20407;-88
2023/09/22 09:44:30;;;;;;;;;;;;;;;;;;6208839;22;19969;-87
2023/09/22 09:46:56;;;;;;;;;;;;;;;;;;6236566;22;19923;-87
2023/09/22 09:49:22;;;;;;;;;;;;;;;;;;6209723;22;19930;-87
2023/09/22 09:51:48;;;;;;;;;;;;;;;;;;6234112;22;19919;-87
2023/09/22 09:54:14;;;;;;;;;;;;;;;;;;6209295;22;19925;-86
2023/09/22 09:56:41;;;;;;;;;;;;;;;;;;6232181;22;19919;-87
2023/09/22 09:59:07;;;;;;;;;;;;;;;;;;6234882;22;19919;-87
2023/09/22 10:01:33;;;;;;;;;;;;;;;;;;6208019;22;19965;-87
2023/09/22 10:03:59;;;;;;;;;;;;;;;;;;6237350;22;19925;-87
2023/09/22 10:06:26;;;;;;;;;;;;;;;;;;6210136;22;19949;-87
2023/09/22 10:08:51;;;;;;;;;;;;;;;;;;6210565;22;19923;-87
2023/09/22 10:11:17;;;;;;;;;;;;;;;;;;6233648;22;19919;-87
2023/09/22 10:13:43;;;;;;;;;;;;;;;;;;6209564;22;20441;-87
2023/09/22 10:16:12;;;;;;;;;;;;;;;;;;6243780;22;21237;-87
2023/09/22 10:18:37;;;;;;;;;;;;;;;;;;6205435;22;19927;-87
2023/09/22 10:21:04;;;;;;;;;;;;;;;;;;6210448;22;19924;-88
2023/09/22 10:23:30;;;;;;;;;;;;;;;;;;6208278;22;19926;-89
2023/09/22 10:25:56;;;;;;;;;;;;;;;;;;6210284;22;19969;-87
2023/09/22 10:28:22;;;;;;;;;;;;;;;;;;6208231;22;19915;-88
2023/09/22 10:30:48;;;;;;;;;;;;;;;;;;6235057;22;19943;-88
2023/09/22 10:33:14;;;;;;;;;;;;;;;;;;6236301;22;19939;-87
2023/09/22 10:35:43;;;;;;;;;;;;;;;;;;6230716;22;19919;-88
2023/09/22 10:38:14;;;;;;;;;;;;;;;;;;6234716;22;19919;-87
2023/09/22 10:40:40;;;;;;;;;;;;;;;;;;6234164;22;20046;-87
2023/09/22 10:43:06;;;;;;;;;;;;;;;;;;6213161;22;19965;-87
2023/09/22 10:45:32;;;;;;;;;;;;;;;;;;6234771;22;20496;-87
2023/09/22 10:47:58;;;;;;;;;;;;;;;;;;6211166;22;20747;-87
2023/09/22 10:50:26;;;;;;;;;;;;;;;;;;6233395;22;19920;-88
2023/09/22 10:52:54;;;;;;;;;;;;;;;;;;6209788;22;19970;-88
2023/09/22 10:55:20;;;;;;;;;;;;;;;;;;6210183;22;19986;-88
2023/09/22 10:57:46;;;;;;;;;;;;;;;;;;6233207;22;20416;-88
2023/09/22 11:00:13;;;;;;;;;;;;;;;;;;6236860;22;19925;-88
2023/09/22 11:02:39;;;;;;;;;;;;;;;;;;6231865;22;19934;-87
2023/09/22 11:05:05;;;;;;;;;;;;;;;;;;6233883;22;20297;-87
2023/09/22 11:07:31;;;;;;;;;;;;;;;;;;6233542;22;19977;-87
2023/09/22 11:10:00;;;;;;;;;;;;;;;;;;6235380;22;19919;-88
2023/09/22 11:12:27;;;;;;;;;;;;;;;;;;6230938;22;19978;-88
2023/09/22 11:14:53;;;;;;;;;;;;;;;;;;6208914;22;19919;-87
2023/09/22 11:17:19;;;;;;;;;;;;;;;;;;6208033;22;20008;-88
2023/09/22 11:19:45;;;;;;;;;;;;;;;;;;6230739;22;19958;-88
2023/09/22 11:22:12;;;;;;;;;;;;;;;;;;6234664;22;19930;-87
2023/09/22 11:24:38;;;;;;;;;;;;;;;;;;6231862;22;19919;-87
2023/09/22 11:27:05;;;;;;;;;;;;;;;;;;6210476;22;20241;-88
2023/09/22 11:29:33;;;;;;;;;;;;;;;;;;6208140;22;19923;-87
2023/09/22 11:32:00;;;;;;;;;;;;;;;;;;6210358;22;20421;-87
2023/09/22 11:34:27;;;;;;;;;;;;;;;;;;6206421;22;20221;-87
2023/09/22 11:36:54;;;;;;;;;;;;;;;;;;6205123;22;20574;-87
2023/09/22 11:39:24;;;;;;;;;;;;;;;;;;6208730;22;20322;-87
2023/09/22 11:41:50;;;;;;;;;;;;;;;;;;6208117;22;19946;-87
2023/09/22 11:44:16;;;;;;;;;;;;;;;;;;6237387;22;20332;-87
2023/09/22 11:46:42;;;;;;;;;;;;;;;;;;6207116;22;21001;-87
2023/09/22 11:49:09;;;;;;;;;;;;;;;;;;6232567;22;19919;-87
2023/09/22 11:51:35;;;;;;;;;;;;;;;;;;6204138;22;20336;-87
2023/09/22 11:54:02;;;;;;;;;;;;;;;;;;6234268;22;19930;-87
2023/09/22 11:56:28;;;;;;;;;;;;;;;;;;6207229;22;19968;-87
2023/09/22 11:58:54;;;;;;;;;;;;;;;;;;6210824;22;19930;-87
2023/09/22 12:01:20;;;;;;;;;;;;;;;;;;6233222;22;19920;-87
2023/09/22 12:03:46;;;;;;;;;;;;;;;;;;6207037;22;19919;-87
2023/09/22 12:06:15;;;;;;;;;;;;;;;;;;6229981;22;20292;-87
2023/09/22 12:08:40;;;;;;;;;;;;;;;;;;6202849;22;19977;-86
2023/09/22 12:11:07;;;;;;;;;;;;;;;;;;6205032;22;19919;-87
2023/09/22 12:13:33;;;;;;;;;;;;;;;;;;6206143;22;20324;-87
2023/09/22 12:15:59;;;;;;;;;;;;;;;;;;6210066;22;19926;-87
2023/09/22 12:18:25;;;;;;;;;;;;;;;;;;6220158;22;20302;-88
2023/09/22 12:20:51;;;;;;;;;;;;;;;;;;6259083;22;19923;-87
2023/09/22 12:23:17;;;;;;;;;;;;;;;;;;6254840;22;19919;-87
2023/09/22 12:25:43;;;;;;;;;;;;;;;;;;6256458;22;19930;-87
2023/09/22 12:28:09;;;;;;;;;;;;;;;;;;6232383;22;19990;-87
2023/09/22 12:30:35;;;;;;;;;;;;;;;;;;6256608;22;19962;-87
2023/09/22 12:33:01;;;;;;;;;;;;;;;;;;6258989;22;19923;-87
2023/09/22 12:35:28;;;;;;;;;;;;;;;;;;6262870;22;19919;-87
2023/09/22 12:37:54;;;;;;;;;;;;;;;;;;6237622;22;19919;-87
2023/09/22 12:40:20;;;;;;;;;;;;;;;;;;6234991;22;19919;-87
2023/09/22 12:42:46;;;;;;;;;;;;;;;;;;6256727;22;19926;-88
2023/09/22 12:45:12;;;;;;;;;;;;;;;;;;6260893;22;19965;-87
2023/09/22 12:47:38;;;;;;;;;;;;;;;;;;6232971;22;19942;-87
2023/09/22 12:50:08;;;;;;;;;;;;;;;;;;6261559;22;19990;-88
2023/09/22 12:52:34;;;;;;;;;;;;;;;;;;6230349;22;20400;-87
2023/09/22 12:55:00;;;;;;;;;;;;;;;;;;6259305;22;19919;-87
2023/09/22 12:57:28;;;;;;;;;;;;;;;;;;6257894;22;20041;-87
2023/09/22 12:59:53;;;;;;;;;;;;;;;;;;6259188;22;19922;-87
2023/09/22 13:02:19;;;;;;;;;;;;;;;;;;6231981;22;20301;-87
2023/09/22 13:04:45;;;;;;;;;;;;;;;;;;6230529;22;20756;-87
2023/09/22 13:07:11;;;;;;;;;;;;;;;;;;6230283;22;20709;-87
2023/09/22 13:09:37;;;;;;;;;;;;;;;;;;6253611;22;19919;-87
2023/09/22 13:12:03;;;;;;;;;;;;;;;;;;6232581;22;19919;-87
2023/09/22 13:14:29;;;;;;;;;;;;;;;;;;6253702;22;19923;-87
2023/09/22 13:16:55;;;;;;;;;;;;;;;;;;6258091;22;20511;-88
2023/09/22 13:19:21;;;;;;;;;;;;;;;;;;6258905;22;20018;-88
2023/09/22 13:21:49;;;;;;;;;;;;;;;;;;6232062;22;19919;-87
2023/09/22 13:24:15;;;;;;;;;;;;;;;;;;6259610;22;19919;-88
2023/09/22 13:26:41;;;;;;;;;;;;;;;;;;6255890;22;19927;-87
2023/09/22 13:29:07;;;;;;;;;;;;;;;;;;6231368;22;19961;-87
2023/09/22 13:31:33;;;;;;;;;;;;;;;;;;6256920;22;19950;-87
2023/09/22 13:34:02;;;;;;;;;;;;;;;;;;6251979;22;20615;-92
2023/09/22 13:36:30;;;;;;;;;;;;;;;;;;6227363;22;19919;-93
2023/09/22 13:38:56;;;;;;;;;;;;;;;;;;6258855;22;19992;-89
2023/09/22 13:41:27;;;;;;;;;;;;;;;;;;6229300;22;20777;-87
2023/09/22 13:43:54;;;;;;;;;;;;;;;;;;6257772;22;19919;-87
2023/09/22 13:46:20;;;;;;;;;;;;;;;;;;6227746;22;19923;-87
2023/09/22 13:48:46;;;;;;;;;;;;;;;;;;6222815;22;19930;-88
2023/09/22 13:51:12;;;;;;;;;;;;;;;;;;6252396;22;19919;-84
2023/09/22 13:53:38;;;;;;;;;;;;;;;;;;6249721;22;19919;-84
2023/09/22 13:56:05;;;;;;;;;;;;;;;;;;6226427;22;19919;-84
2023/09/22 14:01:14;;;;;;;;;;;;;;;;;;6287750;22;19923;-82
2023/09/22 14:03:40;;;;;;;;;;;;;;;;;;6252225;22;19922;-84
2023/09/22 14:06:09;;;;;;;;;;;;;;;;;;6255810;22;19929;-84
2023/09/22 14:08:35;;;;;;;;;;;;;;;;;;6283745;22;19939;-84
2023/09/22 14:11:03;;;;;;;;;;;;;;;;;;6233729;22;19955;-84
2023/09/22 14:13:32;;;;;;;;;;;;;;;;;;6229730;22;19946;-84
2023/09/22 14:15:58;;;;;;;;;;;;;;;;;;6234104;22;19918;-84
2023/09/22 14:18:25;;;;;;;;;;;;;;;;;;6230113;22;20329;-84
2023/09/22 14:20:54;;;;;;;;;;;;;;;;;;6230499;22;19919;-84
2023/09/22 14:23:33;;;;;;;;;;;;;;;;;;6253880;22;19919;-85
2023/09/22 14:25:59;;;;;;;;;;;;;;;;;;6229645;22;20013;-84
2023/09/22 14:28:25;;;;;;;;;;;;;;;;;;6226924;22;19990;-84
2023/09/22 14:30:54;;;;;;;;;;;;;;;;;;6228853;22;19919;-82
2023/09/22 14:33:48;;;;;;;;;;;;;;;;;;;;;
2023/09/22 14:36:29;;;;;;;;;;;;;;;;;;6260738;22;20604;-82
2023/09/22 14:38:55;;;;;;;;;;;;;;;;;;6230535;22;19926;-82
2023/09/22 14:41:22;;;;;;;;;;;;;;;;;;6255971;22;19922;-82
2023/09/22 14:43:50;;;;;;;;;;;;;;;;;;6281529;22;19926;-82
2023/09/22 14:46:16;;;;;;;;;;;;;;;;;;6229437;22;19927;-82
2023/09/22 14:48:50;;;;;;;;;;;;;;;;;;6254260;22;19926;-82
2023/09/22 14:51:16;;;;;;;;;;;;;;;;;;6232399;22;19954;-82
2023/09/22 14:53:42;;;;;;;;;;;;;;;;;;6226042;22;19964;-82
2023/09/22 14:56:18;;;;;;;;;;;;;;;;;;;;;
2023/09/22 14:59:00;;;;;;;;;;;;;;;;;;6257456;22;19919;-81
2023/09/22 15:01:28;;;;;;;;;;;;;;;;;;6224767;22;19968;-82
2023/09/22 15:03:55;;;;;;;;;;;;;;;;;;6231678;22;19950;-82
2023/09/22 15:06:24;;;;;;;;;;;;;;;;;;6257490;22;19926;-82
2023/09/22 15:08:50;;;;;;;;;;;;;;;;;;6255383;22;20520;-82
2023/09/22 15:11:16;;;;;;;;;;;;;;;;;;6251897;22;19926;-84
2023/09/22 15:13:50;;;;;;;;;;;;;;;;;;6223402;22;19919;-82
2023/09/22 15:16:42;;;;;;;;;;;;;;;;;;6252971;22;19930;-85
2023/09/22 15:19:13;;;;;;;;;;;;;;;;;;6251559;22;19923;-82
2023/09/22 15:22:08;;;;;;;;;;;;;;;;;;6250022;22;20064;-83
2023/09/22 15:25:16;;;;;;;;;;;;;;;;;;6199412;23;20321;-82
2023/09/22 15:27:50;;;;;;;;;;;;;;;;;;6162832;23;19924;-82
2023/09/22 15:33:19;;;;;;;;;;;;;;;;;;6258094;22;19922;-82
2023/09/22 15:36:01;;;;;;;;;;;;;;;;;;6230964;22;20308;-82
2023/09/22 15:41:35;;;;;;;;;;;;;;;;;;;;;
2023/09/22 15:44:17;;;;;;;;;;;;;;;;;;6294683;22;19918;-82
2023/09/22 15:46:43;;;;;;;;;;;;;;;;;;6231248;22;19973;-82
2023/09/22 15:49:09;;;;;;;;;;;;;;;;;;6232545;22;19919;-83
2023/09/22 15:51:36;;;;;;;;;;;;;;;;;;6255514;22;19919;-82
2023/09/22 15:54:02;;;;;;;;;;;;;;;;;;6257855;22;19919;-82
2023/09/22 15:56:31;;;;;;;;;;;;;;;;;;6255527;22;20023;-82
2023/09/22 15:58:57;;;;;;;;;;;;;;;;;;6259294;22;19918;-82
2023/09/22 16:01:23;;;;;;;;;;;;;;;;;;6281441;22;19926;-82
2023/09/22 16:03:49;;;;;;;;;;;;;;;;;;6284195;22;19927;-82
2023/09/22 16:06:15;;;;;;;;;;;;;;;;;;6282506;22;19922;-83
2023/09/22 16:08:41;;;;;;;;;;;;;;;;;;6280501;22;19997;-82
2023/09/22 16:11:07;;;;;;;;;;;;;;;;;;6284638;22;19950;-82
2023/09/22 16:13:33;;;;;;;;;;;;;;;;;;6255467;22;19923;-83
2023/09/22 16:16:02;;;;;;;;;;;;;;;;;;6259038;22;20353;-82
2023/09/22 16:18:31;;;;;;;;;;;;;;;;;;6281635;22;19923;-82
2023/09/22 16:20:57;;;;;;;;;;;;;;;;;;6278853;22;20829;-84
2023/09/22 16:23:23;;;;;;;;;;;;;;;;;;6256946;22;19961;-84
2023/09/22 16:25:49;;;;;;;;;;;;;;;;;;6260099;22;19923;-83
2023/09/22 16:28:15;;;;;;;;;;;;;;;;;;6286727;22;19922;-83
2023/09/22 16:30:41;;;;;;;;;;;;;;;;;;6282494;22;19923;-83
2023/09/22 16:33:07;;;;;;;;;;;;;;;;;;6280878;22;20052;-83
2023/09/22 16:35:33;;;;;;;;;;;;;;;;;;6254810;22;20433;-83
2023/09/22 16:37:59;;;;;;;;;;;;;;;;;;6259078;22;19919;-83
2023/09/22 16:40:25;;;;;;;;;;;;;;;;;;6253876;22;19940;-83
2023/09/22 16:42:52;;;;;;;;;;;;;;;;;;6260137;22;20333;-83
2023/09/22 16:45:26;;;;;;;;;;;;;;;;;;6261301;22;19918;-83
2023/09/22 16:47:52;;;;;;;;;;;;;;;;;;6263216;22;19989;-82
2023/09/22 16:50:19;;;;;;;;;;;;;;;;;;6262070;22;19918;-82
2023/09/22 16:52:45;;;;;;;;;;;;;;;;;;6259955;22;19953;-83
2023/09/22 16:55:11;;;;;;;;;;;;;;;;;;6261924;22;19947;-84
2023/09/22 16:57:40;;;;;;;;;;;;;;;;;;6286663;22;19954;-83
2023/09/22 17:00:09;;;;;;;;;;;;;;;;;;6261909;22;20006;-83
2023/09/22 17:02:37;;;;;;;;;;;;;;;;;;6285655;22;19918;-83
2023/09/22 17:05:03;;;;;;;;;;;;;;;;;;6262709;22;19950;-83
2023/09/22 17:07:29;;;;;;;;;;;;;;;;;;6259135;22;19996;-83
2023/09/22 17:10:03;;;;;;;;;;;;;;;;;;6257430;22;20239;-83
2023/09/22 17:12:47;;;;;;;;;;;;;;;;;;6286053;22;19977;-83
2023/09/22 17:15:13;;;;;;;;;;;;;;;;;;6262341;22;19957;-82
2023/09/22 17:17:42;;;;;;;;;;;;;;;;;;6262194;22;19946;-83
2023/09/22 17:20:17;;;;;;;;;;;;;;;;;;6287514;22;20371;-83
2023/09/22 17:22:47;;;;;;;;;;;;;;;;;;6257264;22;19925;-83
2023/09/22 17:25:13;;;;;;;;;;;;;;;;;;6261524;22;19919;-83
2023/09/22 17:27:52;;;;;;;;;;;;;;;;;;6289413;22;19923;-83
2023/09/22 17:30:18;;;;;;;;;;;;;;;;;;6260250;22;19925;-83
2023/09/22 17:33:02;;;;;;;;;;;;;;;;;;6285499;22;19965;-83
2023/09/22 17:35:38;;;;;;;;;;;;;;;;;;6259973;22;19919;-83